sensor_id;sensor_type;location;lat;lon;timestamp;P1;durP1;ratioP1;P2;durP2;ratioP2
60917;SDS011;46792;38.854;-9.384;2023-02-18T00:00:52;5.93;;;2.90;;
60917;SDS011;46792;38.854;-9.384;2023-02-18T00:03:11;6.28;;;2.78;;
60917;SDS011;46792;38.854;-9.384;2023-02-18T00:05:12;6.45;;;2.85;;
60917;SDS011;46792;38.854;-9.384;2023-02-18T00:07:13;6.57;;;3.08;;
60917;SDS011;46792;38.854;-9.384;2023-02-18T00:09:14;2.92;;;2.40;;
60917;SDS011;46792;38.854;-9.384;2023-02-18T00:11:30;7.03;;;2.65;;
60917;SDS011;46792;38.854;-9.384;2023-02-18T00:13:34;4.25;;;3.08;;
60917;SDS011;46792;38.854;-9.384;2023-02-18T00:15:35;7.15;;;2.60;;
60917;SDS011;46792;38.854;-9.384;2023-02-18T00:17:36;2.53;;;2.30;;
60917;SDS011;46792;38.854;-9.384;2023-02-18T00:19:37;2.97;;;2.60;;
60917;SDS011;46792;38.854;-9.384;2023-02-18T00:21:37;2.55;;;2.22;;
60917;SDS011;46792;38.854;-9.384;2023-02-18T00:23:56;2.72;;;2.20;;
60917;SDS011;46792;38.854;-9.384;2023-02-18T00:25:58;4.68;;;2.60;;
60917;SDS011;46792;38.854;-9.384;2023-02-18T00:28:00;5.13;;;2.60;;
60917;SDS011;46792;38.854;-9.384;2023-02-18T00:30:01;13.57;;;3.03;;
60917;SDS011;46792;38.854;-9.384;2023-02-18T00:32:03;5.38;;;2.50;;
60917;SDS011;46792;38.854;-9.384;2023-02-18T00:34:04;6.95;;;2.20;;
60917;SDS011;46792;38.854;-9.384;2023-02-18T00:36:08;7.50;;;2.90;;
60917;SDS011;46792;38.854;-9.384;2023-02-18T00:38:12;3.42;;;2.25;;
60917;SDS011;46792;38.854;-9.384;2023-02-18T00:40:31;5.63;;;3.13;;
60917;SDS011;46792;38.854;-9.384;2023-02-18T00:42:31;4.63;;;2.55;;
60917;SDS011;46792;38.854;-9.384;2023-02-18T00:44:32;10.05;;;3.05;;
60917;SDS011;46792;38.854;-9.384;2023-02-18T00:46:33;8.95;;;3.10;;
60917;SDS011;46792;38.854;-9.384;2023-02-18T00:48:35;5.78;;;2.63;;
60917;SDS011;46792;38.854;-9.384;2023-02-18T00:50:36;5.95;;;2.47;;
60917;SDS011;46792;38.854;-9.384;2023-02-18T00:52:36;5.07;;;2.63;;
60917;SDS011;46792;38.854;-9.384;2023-02-18T00:54:37;3.40;;;2.90;;
60917;SDS011;46792;38.854;-9.384;2023-02-18T00:56:38;3.00;;;2.60;;
60917;SDS011;46792;38.854;-9.384;2023-02-18T00:58:39;2.75;;;2.33;;
60917;SDS011;46792;38.854;-9.384;2023-02-18T01:00:40;5.85;;;2.78;;
60917;SDS011;46792;38.854;-9.384;2023-02-18T01:02:59;2.75;;;2.55;;
60917;SDS011;46792;38.854;-9.384;2023-02-18T01:05:00;9.05;;;2.50;;
60917;SDS011;46792;38.854;-9.384;2023-02-18T01:07:01;4.70;;;3.10;;
60917;SDS011;46792;38.854;-9.384;2023-02-18T01:09:02;6.05;;;2.85;;
60917;SDS011;46792;38.854;-9.384;2023-02-18T01:11:04;4.35;;;2.40;;
60917;SDS011;46792;38.854;-9.384;2023-02-18T01:13:05;7.00;;;2.55;;
60917;SDS011;46792;38.854;-9.384;2023-02-18T01:15:06;8.15;;;2.50;;
60917;SDS011;46792;38.854;-9.384;2023-02-18T01:17:07;4.90;;;2.97;;
60917;SDS011;46792;38.854;-9.384;2023-02-18T01:19:11;5.83;;;2.80;;
60917;SDS011;46792;38.854;-9.384;2023-02-18T01:21:12;4.43;;;2.58;;
60917;SDS011;46792;38.854;-9.384;2023-02-18T01:23:12;4.97;;;2.53;;
60917;SDS011;46792;38.854;-9.384;2023-02-18T01:25:13;3.25;;;2.55;;
60917;SDS011;46792;38.854;-9.384;2023-02-18T01:29:52;3.63;;;2.45;;
60917;SDS011;46792;38.854;-9.384;2023-02-18T01:31:53;5.68;;;2.83;;
60917;SDS011;46792;38.854;-9.384;2023-02-18T01:34:02;5.10;;;2.83;;
60917;SDS011;46792;38.854;-9.384;2023-02-18T01:36:03;3.53;;;2.65;;
60917;SDS011;46792;38.854;-9.384;2023-02-18T01:38:04;5.82;;;2.80;;
60917;SDS011;46792;38.854;-9.384;2023-02-18T01:40:05;5.22;;;2.60;;
60917;SDS011;46792;38.854;-9.384;2023-02-18T01:42:16;3.70;;;2.50;;
60917;SDS011;46792;38.854;-9.384;2023-02-18T01:44:23;7.32;;;3.20;;
60917;SDS011;46792;38.854;-9.384;2023-02-18T01:46:27;2.92;;;2.53;;
60917;SDS011;46792;38.854;-9.384;2023-02-18T01:50:36;5.32;;;2.55;;
60917;SDS011;46792;38.854;-9.384;2023-02-18T01:52:40;3.85;;;3.00;;
60917;SDS011;46792;38.854;-9.384;2023-02-18T01:54:43;5.53;;;3.00;;
60917;SDS011;46792;38.854;-9.384;2023-02-18T01:57:03;5.45;;;2.55;;
60917;SDS011;46792;38.854;-9.384;2023-02-18T01:59:05;11.07;;;3.22;;
60917;SDS011;46792;38.854;-9.384;2023-02-18T02:01:09;7.50;;;2.67;;
60917;SDS011;46792;38.854;-9.384;2023-02-18T02:03:10;8.85;;;2.83;;
60917;SDS011;46792;38.854;-9.384;2023-02-18T02:05:11;7.95;;;3.25;;
60917;SDS011;46792;38.854;-9.384;2023-02-18T02:07:31;7.05;;;3.15;;
60917;SDS011;46792;38.854;-9.384;2023-02-18T02:09:32;3.13;;;2.65;;
60917;SDS011;46792;38.854;-9.384;2023-02-18T02:15:48;5.70;;;2.50;;
60917;SDS011;46792;38.854;-9.384;2023-02-18T02:36:35;4.50;;;2.78;;
60917;SDS011;46792;38.854;-9.384;2023-02-18T02:43:50;9.18;;;2.88;;
60917;SDS011;46792;38.854;-9.384;2023-02-18T02:46:02;8.30;;;2.72;;
60917;SDS011;46792;38.854;-9.384;2023-02-18T02:56:03;7.10;;;2.70;;
60917;SDS011;46792;38.854;-9.384;2023-02-18T02:58:04;7.43;;;2.85;;
60917;SDS011;46792;38.854;-9.384;2023-02-18T03:00:07;3.60;;;3.00;;
60917;SDS011;46792;38.854;-9.384;2023-02-18T03:02:30;4.13;;;2.63;;
60917;SDS011;46792;38.854;-9.384;2023-02-18T03:06:57;3.95;;;3.03;;
60917;SDS011;46792;38.854;-9.384;2023-02-18T03:11:24;5.15;;;2.53;;
60917;SDS011;46792;38.854;-9.384;2023-02-18T03:23:41;7.32;;;3.28;;
60917;SDS011;46792;38.854;-9.384;2023-02-18T03:25:48;4.80;;;3.15;;
60917;SDS011;46792;38.854;-9.384;2023-02-18T03:28:10;4.03;;;2.70;;
60917;SDS011;46792;38.854;-9.384;2023-02-18T03:30:31;3.00;;;2.63;;
60917;SDS011;46792;38.854;-9.384;2023-02-18T03:32:40;4.80;;;3.10;;
60917;SDS011;46792;38.854;-9.384;2023-02-18T03:35:02;5.70;;;2.60;;
60917;SDS011;46792;38.854;-9.384;2023-02-18T03:37:07;8.65;;;3.33;;
60917;SDS011;46792;38.854;-9.384;2023-02-18T03:39:18;5.72;;;2.88;;
60917;SDS011;46792;38.854;-9.384;2023-02-18T03:41:41;16.25;;;2.83;;
60917;SDS011;46792;38.854;-9.384;2023-02-18T03:43:52;6.50;;;3.35;;
60917;SDS011;46792;38.854;-9.384;2023-02-18T03:46:01;7.55;;;2.70;;
60917;SDS011;46792;38.854;-9.384;2023-02-18T03:48:02;10.68;;;3.80;;
60917;SDS011;46792;38.854;-9.384;2023-02-18T03:50:03;4.97;;;3.00;;
60917;SDS011;46792;38.854;-9.384;2023-02-18T03:52:05;7.05;;;3.00;;
60917;SDS011;46792;38.854;-9.384;2023-02-18T03:54:23;10.88;;;3.47;;
60917;SDS011;46792;38.854;-9.384;2023-02-18T03:56:24;5.47;;;2.75;;
60917;SDS011;46792;38.854;-9.384;2023-02-18T03:58:25;9.50;;;3.55;;
60917;SDS011;46792;38.854;-9.384;2023-02-18T04:00:25;10.25;;;3.40;;
60917;SDS011;46792;38.854;-9.384;2023-02-18T04:02:44;5.13;;;3.15;;
60917;SDS011;46792;38.854;-9.384;2023-02-18T04:04:45;5.72;;;3.10;;
60917;SDS011;46792;38.854;-9.384;2023-02-18T04:06:46;4.00;;;3.40;;
60917;SDS011;46792;38.854;-9.384;2023-02-18T04:08:46;9.60;;;3.42;;
60917;SDS011;46792;38.854;-9.384;2023-02-18T04:10:47;4.43;;;2.85;;
60917;SDS011;46792;38.854;-9.384;2023-02-18T04:12:48;5.50;;;3.25;;
60917;SDS011;46792;38.854;-9.384;2023-02-18T04:17:26;6.57;;;2.92;;
60917;SDS011;46792;38.854;-9.384;2023-02-18T04:21:46;7.57;;;2.88;;
60917;SDS011;46792;38.854;-9.384;2023-02-18T04:23:47;5.22;;;3.03;;
60917;SDS011;46792;38.854;-9.384;2023-02-18T04:25:47;7.57;;;2.85;;
60917;SDS011;46792;38.854;-9.384;2023-02-18T04:27:48;3.55;;;2.60;;
60917;SDS011;46792;38.854;-9.384;2023-02-18T04:29:49;14.02;;;3.28;;
60917;SDS011;46792;38.854;-9.384;2023-02-18T04:31:50;9.50;;;3.72;;
60917;SDS011;46792;38.854;-9.384;2023-02-18T04:33:50;7.03;;;3.33;;
60917;SDS011;46792;38.854;-9.384;2023-02-18T04:35:51;8.30;;;2.88;;
60917;SDS011;46792;38.854;-9.384;2023-02-18T04:37:52;6.35;;;3.15;;
60917;SDS011;46792;38.854;-9.384;2023-02-18T04:39:52;3.90;;;2.97;;
60917;SDS011;46792;38.854;-9.384;2023-02-18T04:41:53;6.43;;;3.45;;
60917;SDS011;46792;38.854;-9.384;2023-02-18T04:43:54;11.43;;;3.50;;
60917;SDS011;46792;38.854;-9.384;2023-02-18T04:45:54;5.25;;;2.75;;
60917;SDS011;46792;38.854;-9.384;2023-02-18T04:47:55;5.05;;;2.72;;
60917;SDS011;46792;38.854;-9.384;2023-02-18T04:49:55;8.50;;;3.42;;
60917;SDS011;46792;38.854;-9.384;2023-02-18T04:51:56;13.30;;;3.15;;
60917;SDS011;46792;38.854;-9.384;2023-02-18T04:54:15;9.35;;;3.22;;
60917;SDS011;46792;38.854;-9.384;2023-02-18T04:56:34;8.13;;;3.22;;
60917;SDS011;46792;38.854;-9.384;2023-02-18T05:03:35;8.00;;;3.60;;
60917;SDS011;46792;38.854;-9.384;2023-02-18T05:05:35;7.78;;;3.22;;
60917;SDS011;46792;38.854;-9.384;2023-02-18T05:07:39;7.75;;;3.38;;
60917;SDS011;46792;38.854;-9.384;2023-02-18T05:11:47;10.80;;;3.30;;
60917;SDS011;46792;38.854;-9.384;2023-02-18T05:14:06;11.32;;;3.33;;
60917;SDS011;46792;38.854;-9.384;2023-02-18T05:16:25;6.18;;;3.00;;
60917;SDS011;46792;38.854;-9.384;2023-02-18T05:25:51;8.77;;;3.88;;
60917;SDS011;46792;38.854;-9.384;2023-02-18T05:27:52;7.32;;;3.85;;
60917;SDS011;46792;38.854;-9.384;2023-02-18T05:29:52;7.75;;;3.90;;
60917;SDS011;46792;38.854;-9.384;2023-02-18T05:31:56;9.98;;;4.93;;
60917;SDS011;46792;38.854;-9.384;2023-02-18T05:33:59;7.60;;;4.18;;
60917;SDS011;46792;38.854;-9.384;2023-02-18T05:36:02;7.28;;;4.35;;
60917;SDS011;46792;38.854;-9.384;2023-02-18T05:38:03;12.23;;;4.85;;
60917;SDS011;46792;38.854;-9.384;2023-02-18T05:42:23;13.00;;;4.45;;
60917;SDS011;46792;38.854;-9.384;2023-02-18T05:44:24;12.40;;;4.93;;
60917;SDS011;46792;38.854;-9.384;2023-02-18T05:46:31;12.10;;;4.60;;
60917;SDS011;46792;38.854;-9.384;2023-02-18T05:48:32;7.70;;;5.07;;
60917;SDS011;46792;38.854;-9.384;2023-02-18T05:50:35;16.70;;;5.07;;
60917;SDS011;46792;38.854;-9.384;2023-02-18T05:52:35;14.40;;;5.72;;
60917;SDS011;46792;38.854;-9.384;2023-02-18T05:54:37;14.15;;;5.20;;
60917;SDS011;46792;38.854;-9.384;2023-02-18T05:56:56;18.92;;;4.35;;
60917;SDS011;46792;38.854;-9.384;2023-02-18T06:02:19;16.52;;;5.22;;
60917;SDS011;46792;38.854;-9.384;2023-02-18T06:04:19;17.48;;;4.93;;
60917;SDS011;46792;38.854;-9.384;2023-02-18T06:06:21;7.15;;;5.13;;
60917;SDS011;46792;38.854;-9.384;2023-02-18T06:08:21;14.10;;;4.78;;
60917;SDS011;46792;38.854;-9.384;2023-02-18T06:10:22;9.38;;;4.13;;
60917;SDS011;46792;38.854;-9.384;2023-02-18T06:12:23;7.45;;;3.92;;
60917;SDS011;46792;38.854;-9.384;2023-02-18T06:14:42;9.18;;;4.30;;
60917;SDS011;46792;38.854;-9.384;2023-02-18T06:16:42;7.88;;;4.63;;
60917;SDS011;46792;38.854;-9.384;2023-02-18T06:19:02;11.27;;;4.40;;
60917;SDS011;46792;38.854;-9.384;2023-02-18T06:26:18;6.45;;;3.80;;
60917;SDS011;46792;38.854;-9.384;2023-02-18T06:28:19;5.38;;;3.10;;
60917;SDS011;46792;38.854;-9.384;2023-02-18T06:30:20;11.18;;;3.40;;
60917;SDS011;46792;38.854;-9.384;2023-02-18T06:32:20;9.88;;;2.85;;
60917;SDS011;46792;38.854;-9.384;2023-02-18T06:34:21;5.57;;;3.20;;
60917;SDS011;46792;38.854;-9.384;2023-02-18T06:36:40;9.38;;;3.63;;
60917;SDS011;46792;38.854;-9.384;2023-02-18T06:39:01;10.02;;;3.40;;
60917;SDS011;46792;38.854;-9.384;2023-02-18T06:41:03;4.70;;;2.85;;
60917;SDS011;46792;38.854;-9.384;2023-02-18T06:48:01;9.95;;;3.25;;
60917;SDS011;46792;38.854;-9.384;2023-02-18T06:50:02;11.40;;;3.55;;
60917;SDS011;46792;38.854;-9.384;2023-02-18T06:52:03;4.30;;;2.92;;
60917;SDS011;46792;38.854;-9.384;2023-02-18T06:54:04;5.70;;;3.38;;
60917;SDS011;46792;38.854;-9.384;2023-02-18T06:56:05;9.05;;;2.72;;
60917;SDS011;46792;38.854;-9.384;2023-02-18T06:58:06;9.52;;;3.67;;
60917;SDS011;46792;38.854;-9.384;2023-02-18T07:00:07;9.25;;;3.70;;
60917;SDS011;46792;38.854;-9.384;2023-02-18T07:02:09;5.95;;;3.42;;
60917;SDS011;46792;38.854;-9.384;2023-02-18T07:04:12;13.15;;;4.03;;
60917;SDS011;46792;38.854;-9.384;2023-02-18T07:06:31;6.28;;;3.40;;
60917;SDS011;46792;38.854;-9.384;2023-02-18T07:11:27;7.78;;;3.35;;
60917;SDS011;46792;38.854;-9.384;2023-02-18T07:13:28;11.63;;;3.40;;
60917;SDS011;46792;38.854;-9.384;2023-02-18T07:15:29;18.92;;;3.13;;
60917;SDS011;46792;38.854;-9.384;2023-02-18T07:17:29;11.63;;;3.35;;
60917;SDS011;46792;38.854;-9.384;2023-02-18T07:19:30;10.90;;;3.17;;
60917;SDS011;46792;38.854;-9.384;2023-02-18T07:21:30;12.48;;;3.30;;
60917;SDS011;46792;38.854;-9.384;2023-02-18T07:23:31;8.00;;;3.53;;
60917;SDS011;46792;38.854;-9.384;2023-02-18T07:25:32;11.40;;;3.13;;
60917;SDS011;46792;38.854;-9.384;2023-02-18T07:27:32;5.40;;;3.60;;
60917;SDS011;46792;38.854;-9.384;2023-02-18T07:29:33;11.30;;;3.35;;
60917;SDS011;46792;38.854;-9.384;2023-02-18T07:31:33;9.35;;;3.47;;
60917;SDS011;46792;38.854;-9.384;2023-02-18T07:33:34;14.65;;;2.90;;
60917;SDS011;46792;38.854;-9.384;2023-02-18T07:35:35;8.30;;;3.53;;
60917;SDS011;46792;38.854;-9.384;2023-02-18T07:37:35;12.20;;;3.47;;
60917;SDS011;46792;38.854;-9.384;2023-02-18T07:39:39;16.73;;;3.95;;
60917;SDS011;46792;38.854;-9.384;2023-02-18T07:41:41;5.28;;;3.35;;
60917;SDS011;46792;38.854;-9.384;2023-02-18T07:44:01;6.00;;;3.03;;
60917;SDS011;46792;38.854;-9.384;2023-02-18T07:46:04;10.27;;;3.70;;
60917;SDS011;46792;38.854;-9.384;2023-02-18T07:48:23;15.73;;;4.18;;
60917;SDS011;46792;38.854;-9.384;2023-02-18T07:52:45;6.82;;;3.13;;
60917;SDS011;46792;38.854;-9.384;2023-02-18T07:54:45;11.88;;;4.00;;
60917;SDS011;46792;38.854;-9.384;2023-02-18T07:56:46;11.88;;;3.90;;
60917;SDS011;46792;38.854;-9.384;2023-02-18T07:58:47;13.45;;;3.20;;
60917;SDS011;46792;38.854;-9.384;2023-02-18T08:00:48;21.38;;;4.25;;
60917;SDS011;46792;38.854;-9.384;2023-02-18T08:02:49;8.95;;;3.38;;
60917;SDS011;46792;38.854;-9.384;2023-02-18T08:05:08;5.03;;;3.35;;
60917;SDS011;46792;38.854;-9.384;2023-02-18T08:07:13;8.20;;;3.00;;
60917;SDS011;46792;38.854;-9.384;2023-02-18T08:09:18;10.60;;;2.92;;
60917;SDS011;46792;38.854;-9.384;2023-02-18T08:11:18;9.63;;;3.10;;
60917;SDS011;46792;38.854;-9.384;2023-02-18T08:13:19;15.93;;;3.58;;
60917;SDS011;46792;38.854;-9.384;2023-02-18T08:15:19;7.95;;;3.05;;
60917;SDS011;46792;38.854;-9.384;2023-02-18T08:17:20;7.38;;;2.97;;
60917;SDS011;46792;38.854;-9.384;2023-02-18T08:19:22;5.20;;;3.30;;
60917;SDS011;46792;38.854;-9.384;2023-02-18T08:21:24;10.82;;;2.95;;
60917;SDS011;46792;38.854;-9.384;2023-02-18T08:23:25;12.45;;;3.38;;
60917;SDS011;46792;38.854;-9.384;2023-02-18T08:25:25;11.52;;;3.13;;
60917;SDS011;46792;38.854;-9.384;2023-02-18T08:27:27;13.32;;;3.15;;
60917;SDS011;46792;38.854;-9.384;2023-02-18T08:31:47;15.93;;;4.28;;
60917;SDS011;46792;38.854;-9.384;2023-02-18T08:34:06;12.65;;;4.25;;
60917;SDS011;46792;38.854;-9.384;2023-02-18T08:36:08;9.20;;;2.97;;
60917;SDS011;46792;38.854;-9.384;2023-02-18T08:38:09;6.43;;;2.67;;
60917;SDS011;46792;38.854;-9.384;2023-02-18T08:40:10;7.90;;;2.92;;
60917;SDS011;46792;38.854;-9.384;2023-02-18T08:42:31;13.80;;;3.20;;
60917;SDS011;46792;38.854;-9.384;2023-02-18T08:44:31;22.40;;;4.72;;
60917;SDS011;46792;38.854;-9.384;2023-02-18T08:46:32;10.35;;;4.78;;
60917;SDS011;46792;38.854;-9.384;2023-02-18T08:53:30;9.38;;;3.58;;
60917;SDS011;46792;38.854;-9.384;2023-02-18T08:56:08;13.75;;;3.90;;
60917;SDS011;46792;38.854;-9.384;2023-02-18T08:58:09;10.65;;;3.25;;
60917;SDS011;46792;38.854;-9.384;2023-02-18T09:00:10;9.38;;;3.15;;
60917;SDS011;46792;38.854;-9.384;2023-02-18T09:02:13;10.10;;;2.90;;
60917;SDS011;46792;38.854;-9.384;2023-02-18T09:04:14;8.93;;;2.90;;
60917;SDS011;46792;38.854;-9.384;2023-02-18T09:06:37;4.63;;;3.20;;
60917;SDS011;46792;38.854;-9.384;2023-02-18T09:08:38;7.50;;;3.50;;
60917;SDS011;46792;38.854;-9.384;2023-02-18T09:10:38;4.15;;;3.00;;
60917;SDS011;46792;38.854;-9.384;2023-02-18T09:12:39;11.48;;;2.88;;
60917;SDS011;46792;38.854;-9.384;2023-02-18T09:14:58;7.88;;;3.42;;
60917;SDS011;46792;38.854;-9.384;2023-02-18T09:17:32;10.10;;;3.03;;
60917;SDS011;46792;38.854;-9.384;2023-02-18T09:19:32;7.50;;;3.47;;
60917;SDS011;46792;38.854;-9.384;2023-02-18T09:21:36;9.15;;;3.97;;
60917;SDS011;46792;38.854;-9.384;2023-02-18T09:23:37;8.75;;;3.45;;
60917;SDS011;46792;38.854;-9.384;2023-02-18T09:25:38;8.05;;;3.42;;
60917;SDS011;46792;38.854;-9.384;2023-02-18T09:27:39;8.85;;;3.45;;
60917;SDS011;46792;38.854;-9.384;2023-02-18T09:29:40;6.78;;;3.28;;
60917;SDS011;46792;38.854;-9.384;2023-02-18T09:31:41;14.25;;;4.10;;
60917;SDS011;46792;38.854;-9.384;2023-02-18T09:33:43;15.65;;;3.85;;
60917;SDS011;46792;38.854;-9.384;2023-02-18T09:35:45;8.27;;;3.95;;
60917;SDS011;46792;38.854;-9.384;2023-02-18T09:37:46;9.75;;;3.55;;
60917;SDS011;46792;38.854;-9.384;2023-02-18T09:39:47;13.60;;;3.45;;
60917;SDS011;46792;38.854;-9.384;2023-02-18T09:41:49;20.55;;;4.15;;
60917;SDS011;46792;38.854;-9.384;2023-02-18T09:43:53;27.15;;;3.95;;
60917;SDS011;46792;38.854;-9.384;2023-02-18T09:45:58;12.10;;;4.10;;
60917;SDS011;46792;38.854;-9.384;2023-02-18T09:48:27;10.68;;;3.20;;
60917;SDS011;46792;38.854;-9.384;2023-02-18T09:50:50;17.45;;;3.85;;
60917;SDS011;46792;38.854;-9.384;2023-02-18T09:52:52;15.95;;;4.00;;
60917;SDS011;46792;38.854;-9.384;2023-02-18T09:54:53;10.13;;;3.67;;
60917;SDS011;46792;38.854;-9.384;2023-02-18T09:56:53;8.85;;;3.22;;
60917;SDS011;46792;38.854;-9.384;2023-02-18T09:58:55;12.65;;;3.30;;
60917;SDS011;46792;38.854;-9.384;2023-02-18T10:01:32;11.50;;;3.83;;
60917;SDS011;46792;38.854;-9.384;2023-02-18T10:03:28;10.30;;;3.03;;
60917;SDS011;46792;38.854;-9.384;2023-02-18T10:05:30;9.32;;;3.92;;
60917;SDS011;46792;38.854;-9.384;2023-02-18T10:07:32;14.27;;;3.67;;
60917;SDS011;46792;38.854;-9.384;2023-02-18T10:09:34;10.85;;;2.95;;
60917;SDS011;46792;38.854;-9.384;2023-02-18T10:11:41;15.52;;;4.15;;
60917;SDS011;46792;38.854;-9.384;2023-02-18T10:13:43;10.68;;;3.20;;
60917;SDS011;46792;38.854;-9.384;2023-02-18T10:15:44;15.63;;;3.53;;
60917;SDS011;46792;38.854;-9.384;2023-02-18T10:17:46;16.23;;;4.18;;
60917;SDS011;46792;38.854;-9.384;2023-02-18T10:20:07;15.75;;;4.07;;
60917;SDS011;46792;38.854;-9.384;2023-02-18T10:22:08;8.82;;;3.75;;
60917;SDS011;46792;38.854;-9.384;2023-02-18T10:24:15;4.65;;;3.80;;
60917;SDS011;46792;38.854;-9.384;2023-02-18T10:26:34;15.75;;;2.72;;
60917;SDS011;46792;38.854;-9.384;2023-02-18T10:28:36;13.70;;;3.13;;
60917;SDS011;46792;38.854;-9.384;2023-02-18T10:30:42;18.02;;;3.22;;
60917;SDS011;46792;38.854;-9.384;2023-02-18T10:32:46;7.03;;;3.22;;
60917;SDS011;46792;38.854;-9.384;2023-02-18T10:34:52;14.00;;;3.17;;
60917;SDS011;46792;38.854;-9.384;2023-02-18T10:44:00;13.27;;;3.10;;
60917;SDS011;46792;38.854;-9.384;2023-02-18T10:46:24;18.85;;;3.30;;
60917;SDS011;46792;38.854;-9.384;2023-02-18T10:51:03;16.60;;;3.25;;
60917;SDS011;46792;38.854;-9.384;2023-02-18T10:53:18;12.85;;;3.40;;
60917;SDS011;46792;38.854;-9.384;2023-02-18T10:55:44;23.45;;;5.00;;
60917;SDS011;46792;38.854;-9.384;2023-02-18T11:00:26;9.52;;;2.72;;
60917;SDS011;46792;38.854;-9.384;2023-02-18T11:02:29;15.07;;;4.30;;
60917;SDS011;46792;38.854;-9.384;2023-02-18T11:04:38;17.13;;;3.45;;
60917;SDS011;46792;38.854;-9.384;2023-02-18T11:06:44;10.25;;;3.92;;
60917;SDS011;46792;38.854;-9.384;2023-02-18T11:09:06;14.27;;;3.53;;
60917;SDS011;46792;38.854;-9.384;2023-02-18T11:11:21;29.73;;;5.30;;
60917;SDS011;46792;38.854;-9.384;2023-02-18T11:13:29;23.75;;;3.97;;
60917;SDS011;46792;38.854;-9.384;2023-02-18T11:15:34;16.98;;;3.90;;
60917;SDS011;46792;38.854;-9.384;2023-02-18T11:22:32;18.92;;;4.30;;
60917;SDS011;46792;38.854;-9.384;2023-02-18T11:24:37;10.25;;;3.47;;
60917;SDS011;46792;38.854;-9.384;2023-02-18T11:26:47;15.02;;;5.05;;
60917;SDS011;46792;38.854;-9.384;2023-02-18T11:28:48;17.90;;;3.80;;
60917;SDS011;46792;38.854;-9.384;2023-02-18T11:30:54;15.88;;;3.97;;
60917;SDS011;46792;38.854;-9.384;2023-02-18T11:33:17;22.08;;;3.58;;
60917;SDS011;46792;38.854;-9.384;2023-02-18T11:35:24;18.20;;;3.17;;
60917;SDS011;46792;38.854;-9.384;2023-02-18T11:37:30;19.00;;;3.13;;
60917;SDS011;46792;38.854;-9.384;2023-02-18T11:39:32;12.40;;;2.85;;
60917;SDS011;46792;38.854;-9.384;2023-02-18T11:41:46;24.00;;;4.50;;
60917;SDS011;46792;38.854;-9.384;2023-02-18T11:46:32;13.07;;;3.47;;
60917;SDS011;46792;38.854;-9.384;2023-02-18T11:48:33;18.35;;;4.28;;
60917;SDS011;46792;38.854;-9.384;2023-02-18T11:50:34;15.80;;;3.75;;
60917;SDS011;46792;38.854;-9.384;2023-02-18T11:52:36;20.55;;;4.10;;
60917;SDS011;46792;38.854;-9.384;2023-02-18T11:54:41;19.10;;;4.00;;
60917;SDS011;46792;38.854;-9.384;2023-02-18T11:56:42;18.92;;;3.70;;
60917;SDS011;46792;38.854;-9.384;2023-02-18T11:58:57;15.63;;;3.85;;
60917;SDS011;46792;38.854;-9.384;2023-02-18T12:00:59;11.50;;;4.00;;
60917;SDS011;46792;38.854;-9.384;2023-02-18T12:03:32;22.95;;;3.75;;
60917;SDS011;46792;38.854;-9.384;2023-02-18T12:05:41;11.65;;;3.55;;
60917;SDS011;46792;38.854;-9.384;2023-02-18T12:07:46;20.08;;;4.70;;
60917;SDS011;46792;38.854;-9.384;2023-02-18T12:09:56;13.00;;;4.22;;
60917;SDS011;46792;38.854;-9.384;2023-02-18T12:12:11;18.80;;;4.05;;
60917;SDS011;46792;38.854;-9.384;2023-02-18T12:14:17;18.48;;;4.28;;
60917;SDS011;46792;38.854;-9.384;2023-02-18T12:18:48;10.80;;;2.83;;
60917;SDS011;46792;38.854;-9.384;2023-02-18T12:23:34;21.27;;;3.95;;
60917;SDS011;46792;38.854;-9.384;2023-02-18T12:25:47;31.92;;;5.82;;
60917;SDS011;46792;38.854;-9.384;2023-02-18T13:08:35;15.32;;;3.42;;
60917;SDS011;46792;38.854;-9.384;2023-02-18T13:12:56;26.48;;;4.57;;
60917;SDS011;46792;38.854;-9.384;2023-02-18T13:15:20;16.70;;;3.72;;
60917;SDS011;46792;38.854;-9.384;2023-02-18T13:17:23;23.33;;;7.63;;
60917;SDS011;46792;38.854;-9.384;2023-02-18T13:21:30;13.02;;;3.50;;
60917;SDS011;46792;38.854;-9.384;2023-02-18T13:39:59;18.02;;;3.40;;
60917;SDS011;46792;38.854;-9.384;2023-02-18T13:46:59;22.75;;;3.70;;
60917;SDS011;46792;38.854;-9.384;2023-02-18T13:51:03;22.08;;;4.30;;
60917;SDS011;46792;38.854;-9.384;2023-02-18T13:57:47;23.20;;;4.25;;
60917;SDS011;46792;38.854;-9.384;2023-02-18T13:59:56;33.03;;;4.43;;
60917;SDS011;46792;38.854;-9.384;2023-02-18T14:04:36;33.55;;;5.32;;
60917;SDS011;46792;38.854;-9.384;2023-02-18T14:09:35;10.00;;;2.60;;
60917;SDS011;46792;38.854;-9.384;2023-02-18T14:11:49;28.98;;;4.18;;
60917;SDS011;46792;38.854;-9.384;2023-02-18T14:14:13;17.20;;;3.20;;
60917;SDS011;46792;38.854;-9.384;2023-02-18T14:19:37;16.33;;;4.63;;
60917;SDS011;46792;38.854;-9.384;2023-02-18T14:21:43;24.90;;;3.38;;
60917;SDS011;46792;38.854;-9.384;2023-02-18T14:25:54;22.48;;;4.10;;
60917;SDS011;46792;38.854;-9.384;2023-02-18T14:28:44;28.38;;;3.42;;
60917;SDS011;46792;38.854;-9.384;2023-02-18T14:33:12;23.27;;;5.55;;
60917;SDS011;46792;38.854;-9.384;2023-02-18T14:40:02;18.50;;;4.20;;
60917;SDS011;46792;38.854;-9.384;2023-02-18T14:44:34;17.42;;;3.35;;
60917;SDS011;46792;38.854;-9.384;2023-02-18T14:51:41;12.65;;;4.53;;
60917;SDS011;46792;38.854;-9.384;2023-02-18T14:56:25;15.77;;;3.28;;
60917;SDS011;46792;38.854;-9.384;2023-02-18T14:58:28;16.92;;;3.70;;
60917;SDS011;46792;38.854;-9.384;2023-02-18T15:00:32;11.18;;;3.05;;
60917;SDS011;46792;38.854;-9.384;2023-02-18T15:02:35;15.73;;;3.65;;
60917;SDS011;46792;38.854;-9.384;2023-02-18T15:04:37;13.32;;;3.65;;
60917;SDS011;46792;38.854;-9.384;2023-02-18T15:06:44;15.60;;;4.05;;
60917;SDS011;46792;38.854;-9.384;2023-02-18T15:08:44;7.85;;;3.25;;
60917;SDS011;46792;38.854;-9.384;2023-02-18T15:12:47;11.65;;;3.92;;
60917;SDS011;46792;38.854;-9.384;2023-02-18T15:14:48;13.77;;;3.95;;
60917;SDS011;46792;38.854;-9.384;2023-02-18T15:16:51;13.40;;;3.20;;
60917;SDS011;46792;38.854;-9.384;2023-02-18T15:18:53;16.73;;;3.75;;
60917;SDS011;46792;38.854;-9.384;2023-02-18T15:21:00;20.10;;;3.78;;
60917;SDS011;46792;38.854;-9.384;2023-02-18T15:23:01;17.42;;;3.45;;
60917;SDS011;46792;38.854;-9.384;2023-02-18T15:25:02;26.67;;;3.45;;
60917;SDS011;46792;38.854;-9.384;2023-02-18T15:27:14;13.15;;;2.97;;
60917;SDS011;46792;38.854;-9.384;2023-02-18T15:29:18;16.57;;;3.70;;
60917;SDS011;46792;38.854;-9.384;2023-02-18T15:34:12;20.90;;;4.10;;
60917;SDS011;46792;38.854;-9.384;2023-02-18T15:36:26;19.23;;;4.63;;
60917;SDS011;46792;38.854;-9.384;2023-02-18T15:38:26;17.45;;;4.40;;
60917;SDS011;46792;38.854;-9.384;2023-02-18T15:40:31;11.18;;;3.03;;
60917;SDS011;46792;38.854;-9.384;2023-02-18T15:42:35;22.55;;;4.13;;
60917;SDS011;46792;38.854;-9.384;2023-02-18T15:44:36;24.92;;;3.92;;
60917;SDS011;46792;38.854;-9.384;2023-02-18T15:46:37;20.13;;;4.40;;
60917;SDS011;46792;38.854;-9.384;2023-02-18T15:48:38;12.18;;;2.90;;
60917;SDS011;46792;38.854;-9.384;2023-02-18T15:50:48;16.63;;;4.03;;
60917;SDS011;46792;38.854;-9.384;2023-02-18T15:52:51;12.38;;;3.47;;
60917;SDS011;46792;38.854;-9.384;2023-02-18T16:00:05;14.55;;;3.88;;
60917;SDS011;46792;38.854;-9.384;2023-02-18T16:02:18;17.08;;;3.95;;
60917;SDS011;46792;38.854;-9.384;2023-02-18T16:04:21;14.40;;;3.40;;
60917;SDS011;46792;38.854;-9.384;2023-02-18T16:08:45;22.88;;;3.70;;
60917;SDS011;46792;38.854;-9.384;2023-02-18T16:11:17;11.40;;;2.83;;
60917;SDS011;46792;38.854;-9.384;2023-02-18T16:13:24;14.18;;;3.53;;
60917;SDS011;46792;38.854;-9.384;2023-02-18T16:20:57;13.60;;;3.00;;
60917;SDS011;46792;38.854;-9.384;2023-02-18T16:23:13;14.15;;;3.58;;
60917;SDS011;46792;38.854;-9.384;2023-02-18T16:27:17;18.83;;;3.65;;
60917;SDS011;46792;38.854;-9.384;2023-02-18T16:29:25;13.20;;;3.45;;